sensor_id;sensor_type;location;lat;lon;timestamp;pressure;altitude;pressure_sealevel;temperature;humidity
2192;BME280;1102;49.718;11.902;2023-04-06T00:00:50;96594.41;;;-1.50;100.00
2192;BME280;1102;49.718;11.902;2023-04-06T00:03:17;96601.25;;;-1.66;100.00
2192;BME280;1102;49.718;11.902;2023-04-06T00:05:44;96519.16;;;-2.04;100.00
2192;BME280;1102;49.718;11.902;2023-04-06T00:08:11;96560.38;;;-1.59;100.00
2192;BME280;1102;49.718;11.902;2023-04-06T00:10:38;96563.03;;;-1.75;100.00
2192;BME280;1102;49.718;11.902;2023-04-06T00:13:05;96587.22;;;-1.70;100.00
2192;BME280;1102;49.718;11.902;2023-04-06T00:15:32;96573.16;;;-1.96;100.00
2192;BME280;1102;49.718;11.902;2023-04-06T00:17:59;96576.56;;;-2.12;100.00
2192;BME280;1102;49.718;11.902;2023-04-06T00:20:26;96573.31;;;-2.02;100.00
2192;BME280;1102;49.718;11.902;2023-04-06T00:22:53;96564.06;;;-1.98;100.00
2192;BME280;1102;49.718;11.902;2023-04-06T00:25:20;96596.25;;;-1.72;100.00
2192;BME280;1102;49.718;11.902;2023-04-06T00:27:47;96564.59;;;-1.96;100.00
2192;BME280;1102;49.718;11.902;2023-04-06T00:30:13;96571.50;;;-2.02;100.00
2192;BME280;1102;49.718;11.902;2023-04-06T00:32:41;96586.66;;;-1.94;100.00
2192;BME280;1102;49.718;11.902;2023-04-06T00:35:08;96569.16;;;-2.03;100.00
2192;BME280;1102;49.718;11.902;2023-04-06T00:37:35;96557.63;;;-2.34;100.00
2192;BME280;1102;49.718;11.902;2023-04-06T00:40:02;96582.50;;;-2.33;100.00
2192;BME280;1102;49.718;11.902;2023-04-06T00:42:29;96561.41;;;-2.59;100.00
2192;BME280;1102;49.718;11.902;2023-04-06T00:44:59;96556.47;;;-2.60;100.00
2192;BME280;1102;49.718;11.902;2023-04-06T00:47:26;96583.13;;;-2.43;100.00
2192;BME280;1102;49.718;11.902;2023-04-06T00:49:53;96572.28;;;-2.23;100.00
2192;BME280;1102;49.718;11.902;2023-04-06T00:52:21;96533.69;;;-2.42;100.00
2192;BME280;1102;49.718;11.902;2023-04-06T00:54:49;96554.41;;;-2.42;100.00
2192;BME280;1102;49.718;11.902;2023-04-06T00:57:18;96576.34;;;-2.27;100.00
2192;BME280;1102;49.718;11.902;2023-04-06T00:59:52;96556.91;;;-2.30;100.00
2192;BME280;1102;49.718;11.902;2023-04-06T01:02:19;96555.72;;;-2.22;100.00
2192;BME280;1102;49.718;11.902;2023-04-06T01:04:49;96573.84;;;-2.22;100.00
2192;BME280;1102;49.718;11.902;2023-04-06T01:07:25;96540.47;;;-2.57;100.00
2192;BME280;1102;49.718;11.902;2023-04-06T01:10:04;96555.59;;;-2.49;100.00
2192;BME280;1102;49.718;11.902;2023-04-06T01:12:32;96578.84;;;-2.16;100.00
2192;BME280;1102;49.718;11.902;2023-04-06T01:15:02;96578.19;;;-2.06;100.00
2192;BME280;1102;49.718;11.902;2023-04-06T01:17:31;96551.91;;;-2.36;100.00
2192;BME280;1102;49.718;11.902;2023-04-06T01:20:06;96582.78;;;-2.13;100.00
2192;BME280;1102;49.718;11.902;2023-04-06T01:22:34;96582.47;;;-2.17;100.00
2192;BME280;1102;49.718;11.902;2023-04-06T01:25:02;96578.38;;;-2.13;100.00
2192;BME280;1102;49.718;11.902;2023-04-06T01:27:35;96548.50;;;-2.20;100.00
2192;BME280;1102;49.718;11.902;2023-04-06T01:30:02;96546.19;;;-2.17;100.00
2192;BME280;1102;49.718;11.902;2023-04-06T01:32:46;96541.22;;;-2.23;100.00
2192;BME280;1102;49.718;11.902;2023-04-06T01:35:18;96575.38;;;-2.04;100.00
2192;BME280;1102;49.718;11.902;2023-04-06T01:38:02;96581.81;;;-2.07;100.00
2192;BME280;1102;49.718;11.902;2023-04-06T01:40:32;96572.25;;;-2.06;100.00
2192;BME280;1102;49.718;11.902;2023-04-06T01:42:59;96544.53;;;-2.45;100.00
2192;BME280;1102;49.718;11.902;2023-04-06T01:45:32;96575.03;;;-2.30;100.00
2192;BME280;1102;49.718;11.902;2023-04-06T01:48:09;96574.66;;;-2.55;100.00
2192;BME280;1102;49.718;11.902;2023-04-06T01:50:36;96574.66;;;-2.55;100.00
2192;BME280;1102;49.718;11.902;2023-04-06T01:53:02;96539.22;;;-2.72;100.00
2192;BME280;1102;49.718;11.902;2023-04-06T01:55:30;96530.38;;;-2.76;100.00
2192;BME280;1102;49.718;11.902;2023-04-06T01:58:29;96561.41;;;-2.59;100.00
2192;BME280;1102;49.718;11.902;2023-04-06T02:00:57;96541.00;;;-2.55;100.00
2192;BME280;1102;49.718;11.902;2023-04-06T02:03:27;96566.47;;;-2.30;100.00
2192;BME280;1102;49.718;11.902;2023-04-06T02:06:03;96568.47;;;-2.16;100.00
2192;BME280;1102;49.718;11.902;2023-04-06T02:08:35;96548.63;;;-2.10;100.00
2192;BME280;1102;49.718;11.902;2023-04-06T02:11:02;96545.91;;;-2.20;100.00
2192;BME280;1102;49.718;11.902;2023-04-06T02:13:33;96545.66;;;-2.19;100.00
2192;BME280;1102;49.718;11.902;2023-04-06T02:16:00;96510.13;;;-2.23;100.00
2192;BME280;1102;49.718;11.902;2023-04-06T02:18:32;96542.91;;;-1.90;100.00
2192;BME280;1102;49.718;11.902;2023-04-06T02:20:58;96558.88;;;-1.76;100.00
2192;BME280;1102;49.718;11.902;2023-04-06T02:23:25;96523.94;;;-1.96;100.00
2192;BME280;1102;49.718;11.902;2023-04-06T02:25:52;96521.06;;;-1.99;100.00
2192;BME280;1102;49.718;11.902;2023-04-06T02:28:19;96550.84;;;-1.75;100.00
2192;BME280;1102;49.718;11.902;2023-04-06T02:30:46;96551.63;;;-1.74;100.00
2192;BME280;1102;49.718;11.902;2023-04-06T02:33:13;96528.59;;;-1.98;100.00
2192;BME280;1102;49.718;11.902;2023-04-06T02:35:44;96554.19;;;-1.80;100.00
2192;BME280;1102;49.718;11.902;2023-04-06T02:38:11;96528.69;;;-1.88;100.00
2192;BME280;1102;49.718;11.902;2023-04-06T02:40:38;96552.41;;;-1.74;100.00
2192;BME280;1102;49.718;11.902;2023-04-06T02:43:15;96547.19;;;-1.79;100.00
2192;BME280;1102;49.718;11.902;2023-04-06T02:45:44;96496.63;;;-2.03;100.00
2192;BME280;1102;49.718;11.902;2023-04-06T02:48:12;96536.78;;;-1.84;100.00
2192;BME280;1102;49.718;11.902;2023-04-06T02:50:39;96542.25;;;-1.81;100.00
2192;BME280;1102;49.718;11.902;2023-04-06T02:53:07;96517.50;;;-1.93;100.00
2192;BME280;1102;49.718;11.902;2023-04-06T02:55:36;96529.53;;;-1.82;100.00
2192;BME280;1102;49.718;11.902;2023-04-06T02:58:03;96549.59;;;-1.72;100.00
2192;BME280;1102;49.718;11.902;2023-04-06T03:00:37;96528.13;;;-1.90;100.00
2192;BME280;1102;49.718;11.902;2023-04-06T03:03:04;96544.31;;;-1.83;100.00
2192;BME280;1102;49.718;11.902;2023-04-06T03:05:31;96548.50;;;-1.76;100.00
2192;BME280;1102;49.718;11.902;2023-04-06T03:07:58;96548.09;;;-1.68;100.00
2192;BME280;1102;49.718;11.902;2023-04-06T03:10:34;96553.16;;;-1.57;100.00
2192;BME280;1102;49.718;11.902;2023-04-06T03:13:01;96544.09;;;-1.54;100.00
2192;BME280;1102;49.718;11.902;2023-04-06T03:15:54;96516.94;;;-1.95;100.00
2192;BME280;1102;49.718;11.902;2023-04-06T03:18:23;96557.84;;;-1.75;100.00
2192;BME280;1102;49.718;11.902;2023-04-06T03:20:51;96557.38;;;-1.72;100.00
2192;BME280;1102;49.718;11.902;2023-04-06T03:23:22;96554.09;;;-1.63;100.00
2192;BME280;1102;49.718;11.902;2023-04-06T03:25:54;96518.28;;;-1.93;100.00
2192;BME280;1102;49.718;11.902;2023-04-06T03:28:21;96541.97;;;-1.84;100.00
2192;BME280;1102;49.718;11.902;2023-04-06T03:30:52;96548.47;;;-1.82;100.00
2192;BME280;1102;49.718;11.902;2023-04-06T03:33:35;96522.66;;;-1.93;100.00
2192;BME280;1102;49.718;11.902;2023-04-06T03:36:02;96531.00;;;-2.13;100.00
2192;BME280;1102;49.718;11.902;2023-04-06T03:38:31;96524.53;;;-2.11;100.00
2192;BME280;1102;49.718;11.902;2023-04-06T03:40:59;96550.88;;;-1.97;100.00
2192;BME280;1102;49.718;11.902;2023-04-06T03:43:26;96529.38;;;-1.97;100.00
2192;BME280;1102;49.718;11.902;2023-04-06T03:45:53;96552.63;;;-1.81;100.00
2192;BME280;1102;49.718;11.902;2023-04-06T03:48:20;96528.16;;;-2.12;100.00
2192;BME280;1102;49.718;11.902;2023-04-06T03:50:47;96548.53;;;-1.98;100.00
2192;BME280;1102;49.718;11.902;2023-04-06T03:53:14;96521.09;;;-2.16;100.00
2192;BME280;1102;49.718;11.902;2023-04-06T03:55:40;96559.78;;;-2.10;100.00
2192;BME280;1102;49.718;11.902;2023-04-06T03:58:07;96539.69;;;-2.19;100.00
2192;BME280;1102;49.718;11.902;2023-04-06T04:00:34;96524.56;;;-2.27;100.00
2192;BME280;1102;49.718;11.902;2023-04-06T04:03:01;96546.88;;;-2.04;100.00
2192;BME280;1102;49.718;11.902;2023-04-06T04:05:29;96538.91;;;-2.20;100.00
2192;BME280;1102;49.718;11.902;2023-04-06T04:07:55;96577.69;;;-1.86;100.00
2192;BME280;1102;49.718;11.902;2023-04-06T04:10:25;96548.75;;;-2.22;100.00
2192;BME280;1102;49.718;11.902;2023-04-06T04:12:52;96530.41;;;-2.37;100.00
2192;BME280;1102;49.718;11.902;2023-04-06T04:15:19;96573.56;;;-2.04;100.00
2192;BME280;1102;49.718;11.902;2023-04-06T04:17:47;96575.63;;;-2.06;100.00
2192;BME280;1102;49.718;11.902;2023-04-06T04:20:16;96560.19;;;-2.18;100.00
2192;BME280;1102;49.718;11.902;2023-04-06T04:22:43;96556.50;;;-2.22;100.00
2192;BME280;1102;49.718;11.902;2023-04-06T04:25:10;96558.38;;;-2.17;100.00
2192;BME280;1102;49.718;11.902;2023-04-06T04:27:42;96565.06;;;-2.21;100.00
2192;BME280;1102;49.718;11.902;2023-04-06T04:30:09;96552.25;;;-2.28;100.00
2192;BME280;1102;49.718;11.902;2023-04-06T04:32:36;96567.09;;;-2.23;100.00
2192;BME280;1102;49.718;11.902;2023-04-06T04:35:05;96517.22;;;-2.74;100.00
2192;BME280;1102;49.718;11.902;2023-04-06T04:37:36;96568.75;;;-2.34;100.00
2192;BME280;1102;49.718;11.902;2023-04-06T04:40:03;96555.06;;;-2.68;100.00
2192;BME280;1102;49.718;11.902;2023-04-06T04:42:39;96531.66;;;-2.78;100.00
2192;BME280;1102;49.718;11.902;2023-04-06T04:45:10;96567.66;;;-2.55;100.00
2192;BME280;1102;49.718;11.902;2023-04-06T04:47:38;96542.84;;;-2.73;100.00
2192;BME280;1102;49.718;11.902;2023-04-06T04:50:07;96537.59;;;-2.78;100.00
2192;BME280;1102;49.718;11.902;2023-04-06T04:52:37;96541.97;;;-2.61;100.00
2192;BME280;1102;49.718;11.902;2023-04-06T04:55:18;96565.25;;;-2.45;100.00
2192;BME280;1102;49.718;11.902;2023-04-06T04:57:47;96509.59;;;-2.98;100.00
2192;BME280;1102;49.718;11.902;2023-04-06T05:00:16;96554.16;;;-2.79;100.00
2192;BME280;1102;49.718;11.902;2023-04-06T05:02:44;96529.50;;;-2.81;100.00
2192;BME280;1102;49.718;11.902;2023-04-06T05:05:18;96542.59;;;-2.71;100.00
2192;BME280;1102;49.718;11.902;2023-04-06T05:07:44;96570.75;;;-2.58;100.00
2192;BME280;1102;49.718;11.902;2023-04-06T05:10:22;96527.41;;;-2.84;100.00
2192;BME280;1102;49.718;11.902;2023-04-06T05:12:53;96582.19;;;-2.54;100.00
2192;BME280;1102;49.718;11.902;2023-04-06T05:15:20;96561.19;;;-2.57;100.00
2192;BME280;1102;49.718;11.902;2023-04-06T05:17:51;96585.50;;;-2.75;100.00
2192;BME280;1102;49.718;11.902;2023-04-06T05:20:23;96551.31;;;-2.77;100.00
2192;BME280;1102;49.718;11.902;2023-04-06T05:22:50;96575.84;;;-2.63;100.00
2192;BME280;1102;49.718;11.902;2023-04-06T05:25:17;96560.94;;;-2.73;100.00
2192;BME280;1102;49.718;11.902;2023-04-06T05:27:46;96582.50;;;-2.50;100.00
2192;BME280;1102;49.718;11.902;2023-04-06T05:30:29;96555.44;;;-2.59;100.00
2192;BME280;1102;49.718;11.902;2023-04-06T05:32:57;96580.22;;;-2.47;100.00
2192;BME280;1102;49.718;11.902;2023-04-06T05:35:30;96582.97;;;-2.36;100.00
2192;BME280;1102;49.718;11.902;2023-04-06T05:38:02;96552.72;;;-2.53;100.00
2192;BME280;1102;49.718;11.902;2023-04-06T05:40:28;96577.75;;;-2.20;100.00
2192;BME280;1102;49.718;11.902;2023-04-06T05:42:56;96596.22;;;-1.94;100.00
2192;BME280;1102;49.718;11.902;2023-04-06T05:45:22;96594.91;;;-1.75;100.00
2192;BME280;1102;49.718;11.902;2023-04-06T05:47:53;96593.59;;;-1.56;100.00
2192;BME280;1102;49.718;11.902;2023-04-06T05:50:27;96600.47;;;-1.44;100.00
2192;BME280;1102;49.718;11.902;2023-04-06T05:52:55;96608.81;;;-1.15;100.00
2192;BME280;1102;49.718;11.902;2023-04-06T05:55:25;96572.75;;;-1.17;100.00
2192;BME280;1102;49.718;11.902;2023-04-06T05:58:03;96579.59;;;-1.06;100.00
2192;BME280;1102;49.718;11.902;2023-04-06T06:00:30;96583.53;;;-0.98;100.00
2192;BME280;1102;49.718;11.902;2023-04-06T06:03:03;96568.03;;;-0.93;100.00
2192;BME280;1102;49.718;11.902;2023-04-06T06:05:34;96612.19;;;-0.56;100.00
2192;BME280;1102;49.718;11.902;2023-04-06T06:08:09;96596.34;;;-0.54;100.00
2192;BME280;1102;49.718;11.902;2023-04-06T06:10:38;96578.25;;;-0.44;100.00
2192;BME280;1102;49.718;11.902;2023-04-06T06:13:06;96587.16;;;-0.35;100.00
2192;BME280;1102;49.718;11.902;2023-04-06T06:15:33;96580.94;;;-0.34;100.00
2192;BME280;1102;49.718;11.902;2023-04-06T06:18:01;96588.06;;;-0.14;100.00
2192;BME280;1102;49.718;11.902;2023-04-06T06:20:29;96610.28;;;0.09;100.00
2192;BME280;1102;49.718;11.902;2023-04-06T06:22:59;96614.50;;;0.25;100.00
2192;BME280;1102;49.718;11.902;2023-04-06T06:25:25;96580.97;;;0.18;100.00
2192;BME280;1102;49.718;11.902;2023-04-06T06:27:52;96581.28;;;0.32;100.00
2192;BME280;1102;49.718;11.902;2023-04-06T06:30:19;96593.25;;;0.38;100.00
2192;BME280;1102;49.718;11.902;2023-04-06T06:32:50;96616.53;;;0.75;100.00
2192;BME280;1102;49.718;11.902;2023-04-06T06:35:17;96586.78;;;0.46;100.00
2192;BME280;1102;49.718;11.902;2023-04-06T06:37:45;96604.34;;;0.81;100.00
2192;BME280;1102;49.718;11.902;2023-04-06T06:40:15;96627.03;;;1.16;100.00
2192;BME280;1102;49.718;11.902;2023-04-06T06:42:46;96602.03;;;1.15;100.00
2192;BME280;1102;49.718;11.902;2023-04-06T06:45:23;96603.88;;;1.09;100.00
2192;BME280;1102;49.718;11.902;2023-04-06T06:47:52;96614.84;;;1.37;100.00
2192;BME280;1102;49.718;11.902;2023-04-06T06:50:21;96609.63;;;1.62;100.00
2192;BME280;1102;49.718;11.902;2023-04-06T06:52:48;96596.59;;;1.67;100.00
2192;BME280;1102;49.718;11.902;2023-04-06T06:55:14;96623.16;;;1.64;100.00
2192;BME280;1102;49.718;11.902;2023-04-06T06:57:42;96634.06;;;2.17;100.00
2192;BME280;1102;49.718;11.902;2023-04-06T07:00:10;96648.41;;;2.10;100.00
2192;BME280;1102;49.718;11.902;2023-04-06T07:02:39;96644.75;;;2.11;100.00
2192;BME280;1102;49.718;11.902;2023-04-06T07:05:07;96622.00;;;2.36;100.00
2192;BME280;1102;49.718;11.902;2023-04-06T07:07:53;96616.50;;;2.38;100.00
2192;BME280;1102;49.718;11.902;2023-04-06T07:10:20;96627.22;;;2.31;100.00
2192;BME280;1102;49.718;11.902;2023-04-06T07:12:47;96630.06;;;2.45;100.00
2192;BME280;1102;49.718;11.902;2023-04-06T07:15:14;96628.16;;;2.61;100.00
2192;BME280;1102;49.718;11.902;2023-04-06T07:17:42;96631.28;;;2.68;100.00
2192;BME280;1102;49.718;11.902;2023-04-06T07:20:12;96603.13;;;2.60;100.00
2192;BME280;1102;49.718;11.902;2023-04-06T07:22:40;96642.03;;;3.06;100.00
2192;BME280;1102;49.718;11.902;2023-04-06T07:25:07;96639.09;;;3.17;100.00
2192;BME280;1102;49.718;11.902;2023-04-06T07:27:34;96618.38;;;3.31;100.00
2192;BME280;1102;49.718;11.902;2023-04-06T07:30:01;96642.94;;;3.35;100.00
2192;BME280;1102;49.718;11.902;2023-04-06T07:32:28;96656.16;;;3.83;100.00
2192;BME280;1102;49.718;11.902;2023-04-06T07:34:56;96601.84;;;3.41;100.00
2192;BME280;1102;49.718;11.902;2023-04-06T07:37:22;96614.91;;;4.04;100.00
2192;BME280;1102;49.718;11.902;2023-04-06T07:39:49;96655.56;;;4.20;99.19
2192;BME280;1102;49.718;11.902;2023-04-06T07:42:19;96605.78;;;4.01;98.76
2192;BME280;1102;49.718;11.902;2023-04-06T07:44:46;96645.44;;;4.37;96.58
2192;BME280;1102;49.718;11.902;2023-04-06T07:47:12;96652.28;;;4.81;95.26
2192;BME280;1102;49.718;11.902;2023-04-06T07:49:39;96590.53;;;4.08;96.40
2192;BME280;1102;49.718;11.902;2023-04-06T07:52:06;96620.59;;;4.35;93.37
2192;BME280;1102;49.718;11.902;2023-04-06T07:54:33;96625.84;;;4.59;95.09
2192;BME280;1102;49.718;11.902;2023-04-06T07:57:00;96632.81;;;4.44;93.41
2192;BME280;1102;49.718;11.902;2023-04-06T07:59:26;96602.16;;;4.88;94.64
2192;BME280;1102;49.718;11.902;2023-04-06T08:01:53;96611.09;;;5.24;95.50
2192;BME280;1102;49.718;11.902;2023-04-06T08:04:20;96618.00;;;4.78;89.89
2192;BME280;1102;49.718;11.902;2023-04-06T08:06:47;96643.81;;;5.27;88.75
2192;BME280;1102;49.718;11.902;2023-04-06T08:09:13;96605.44;;;4.98;92.81
2192;BME280;1102;49.718;11.902;2023-04-06T08:11:40;96609.38;;;4.77;88.33
2192;BME280;1102;49.718;11.902;2023-04-06T08:14:07;96628.97;;;5.22;87.65
2192;BME280;1102;49.718;11.902;2023-04-06T08:16:34;96600.47;;;5.16;85.87
2192;BME280;1102;49.718;11.902;2023-04-06T08:19:01;96645.03;;;5.34;82.67
2192;BME280;1102;49.718;11.902;2023-04-06T08:21:28;96609.53;;;5.23;82.91
2192;BME280;1102;49.718;11.902;2023-04-06T08:23:54;96608.78;;;5.55;85.71
2192;BME280;1102;49.718;11.902;2023-04-06T08:26:21;96638.97;;;5.90;81.30
2192;BME280;1102;49.718;11.902;2023-04-06T08:28:48;96617.16;;;5.57;80.54
2192;BME280;1102;49.718;11.902;2023-04-06T08:31:15;96633.34;;;5.27;81.13
2192;BME280;1102;49.718;11.902;2023-04-06T08:33:42;96592.75;;;4.87;80.98
2192;BME280;1102;49.718;11.902;2023-04-06T08:36:13;96640.59;;;6.00;85.25
2192;BME280;1102;49.718;11.902;2023-04-06T08:38:41;96632.09;;;6.08;78.99
2192;BME280;1102;49.718;11.902;2023-04-06T08:41:10;96637.25;;;6.27;76.88
2192;BME280;1102;49.718;11.902;2023-04-06T08:43:56;96622.47;;;6.17;77.62
2192;BME280;1102;49.718;11.902;2023-04-06T08:46:25;96633.72;;;6.04;75.95
2192;BME280;1102;49.718;11.902;2023-04-06T08:49:02;96650.56;;;6.17;75.00
2192;BME280;1102;49.718;11.902;2023-04-06T08:51:29;96654.78;;;6.45;76.93
2192;BME280;1102;49.718;11.902;2023-04-06T08:53:58;96636.28;;;6.37;73.68
2192;BME280;1102;49.718;11.902;2023-04-06T08:56:27;96628.22;;;6.61;73.61
2192;BME280;1102;49.718;11.902;2023-04-06T08:58:55;96642.31;;;6.92;77.14
2192;BME280;1102;49.718;11.902;2023-04-06T09:01:27;96633.59;;;6.56;72.68
2192;BME280;1102;49.718;11.902;2023-04-06T09:03:58;96624.72;;;6.38;72.70
2192;BME280;1102;49.718;11.902;2023-04-06T09:06:26;96642.53;;;6.68;73.98
2192;BME280;1102;49.718;11.902;2023-04-06T09:08:57;96599.53;;;6.23;73.58
2192;BME280;1102;49.718;11.902;2023-04-06T09:11:24;96598.28;;;6.48;76.66
2192;BME280;1102;49.718;11.902;2023-04-06T09:13:54;96640.59;;;6.74;71.97
2192;BME280;1102;49.718;11.902;2023-04-06T09:16:22;96640.28;;;6.89;73.17
2192;BME280;1102;49.718;11.902;2023-04-06T09:18:50;96581.44;;;6.35;71.90
2192;BME280;1102;49.718;11.902;2023-04-06T09:21:18;96630.19;;;6.55;72.03
2192;BME280;1102;49.718;11.902;2023-04-06T09:24:01;96599.16;;;6.57;71.32
2192;BME280;1102;49.718;11.902;2023-04-06T09:26:29;96641.50;;;7.05;71.14
2192;BME280;1102;49.718;11.902;2023-04-06T09:28:58;96626.16;;;6.99;70.96
2192;BME280;1102;49.718;11.902;2023-04-06T09:31:29;96637.44;;;6.99;69.72
2192;BME280;1102;49.718;11.902;2023-04-06T09:33:57;96619.91;;;7.08;70.76
2192;BME280;1102;49.718;11.902;2023-04-06T09:36:31;96627.91;;;6.76;68.92
2192;BME280;1102;49.718;11.902;2023-04-06T09:39:00;96569.19;;;6.17;68.35
2192;BME280;1102;49.718;11.902;2023-04-06T09:41:28;96619.56;;;6.60;70.25
2192;BME280;1102;49.718;11.902;2023-04-06T09:44:06;96622.00;;;6.29;68.00
2192;BME280;1102;49.718;11.902;2023-04-06T09:46:35;96608.88;;;6.70;68.80
2192;BME280;1102;49.718;11.902;2023-04-06T09:49:23;96617.91;;;6.64;67.49
2192;BME280;1102;49.718;11.902;2023-04-06T09:51:56;96618.50;;;6.47;68.72
2192;BME280;1102;49.718;11.902;2023-04-06T09:54:28;96588.91;;;6.01;67.71
2192;BME280;1102;49.718;11.902;2023-04-06T09:57:15;96616.06;;;6.37;69.57
2192;BME280;1102;49.718;11.902;2023-04-06T09:59:56;96601.31;;;6.41;69.66
2192;BME280;1102;49.718;11.902;2023-04-06T10:05:46;96620.16;;;6.30;66.85
2192;BME280;1102;49.718;11.902;2023-04-06T10:08:07;96618.91;;;6.55;67.49
2192;BME280;1102;49.718;11.902;2023-04-06T10:10:35;96606.44;;;6.46;66.45
2192;BME280;1102;49.718;11.902;2023-04-06T10:13:03;96614.38;;;6.96;70.22
2192;BME280;1102;49.718;11.902;2023-04-06T10:15:31;96617.34;;;7.17;67.31
2192;BME280;1102;49.718;11.902;2023-04-06T10:17:58;96589.59;;;7.33;66.87
2192;BME280;1102;49.718;11.902;2023-04-06T10:25:56;96594.16;;;7.64;65.66
2192;BME280;1102;49.718;11.902;2023-04-06T10:28:24;96567.38;;;6.95;65.14
2192;BME280;1102;49.718;11.902;2023-04-06T10:30:59;96579.81;;;6.89;64.13
2192;BME280;1102;49.718;11.902;2023-04-06T10:33:27;96581.34;;;7.71;65.42
2192;BME280;1102;49.718;11.902;2023-04-06T10:35:54;96582.75;;;7.46;63.92
2192;BME280;1102;49.718;11.902;2023-04-06T10:38:34;96578.97;;;7.61;64.65
2192;BME280;1102;49.718;11.902;2023-04-06T10:41:07;96571.97;;;7.79;64.03
2192;BME280;1102;49.718;11.902;2023-04-06T10:43:36;96574.28;;;8.11;62.96
2192;BME280;1102;49.718;11.902;2023-04-06T10:46:05;96588.25;;;8.20;62.64
2192;BME280;1102;49.718;11.902;2023-04-06T10:48:45;96592.50;;;7.99;61.00
2192;BME280;1102;49.718;11.902;2023-04-06T10:51:14;96587.84;;;7.65;60.99
2192;BME280;1102;49.718;11.902;2023-04-06T10:53:43;96582.31;;;7.08;60.97
2192;BME280;1102;49.718;11.902;2023-04-06T10:56:12;96585.25;;;7.51;60.99
2192;BME280;1102;49.718;11.902;2023-04-06T10:58:49;96569.00;;;8.11;60.35
2192;BME280;1102;49.718;11.902;2023-04-06T11:01:21;96579.16;;;6.84;59.19
2192;BME280;1102;49.718;11.902;2023-04-06T11:03:51;96580.78;;;6.93;61.45
2192;BME280;1102;49.718;11.902;2023-04-06T11:06:22;96560.09;;;6.78;61.45
2192;BME280;1102;49.718;11.902;2023-04-06T11:08:50;96539.06;;;6.78;60.91
2192;BME280;1102;49.718;11.902;2023-04-06T11:11:19;96576.94;;;7.58;60.79
2192;BME280;1102;49.718;11.902;2023-04-06T11:13:59;96546.84;;;8.12;61.02
2192;BME280;1102;49.718;11.902;2023-04-06T11:16:31;96566.00;;;8.83;61.69
2192;BME280;1102;49.718;11.902;2023-04-06T11:19:05;96582.44;;;9.15;58.79
2192;BME280;1102;49.718;11.902;2023-04-06T11:21:40;96575.59;;;8.88;59.45
2192;BME280;1102;49.718;11.902;2023-04-06T11:29:17;96572.97;;;9.31;58.14
2192;BME280;1102;49.718;11.902;2023-04-06T11:34:21;96566.66;;;9.96;57.20
2192;BME280;1102;49.718;11.902;2023-04-06T11:36:53;96552.91;;;10.29;57.81
2192;BME280;1102;49.718;11.902;2023-04-06T11:39:22;96565.50;;;10.15;55.29
2192;BME280;1102;49.718;11.902;2023-04-06T11:41:54;96556.72;;;9.93;57.45
2192;BME280;1102;49.718;11.902;2023-04-06T11:44:49;96514.84;;;10.13;57.99
2192;BME280;1102;49.718;11.902;2023-04-06T11:47:16;96546.75;;;10.66;56.41
2192;BME280;1102;49.718;11.902;2023-04-06T11:49:43;96542.88;;;10.64;57.78
2192;BME280;1102;49.718;11.902;2023-04-06T11:52:23;96520.31;;;10.46;57.02
2192;BME280;1102;49.718;11.902;2023-04-06T11:54:54;96546.97;;;11.03;57.47
2192;BME280;1102;49.718;11.902;2023-04-06T11:57:23;96518.09;;;10.98;56.78
2192;BME280;1102;49.718;11.902;2023-04-06T11:59:55;96541.25;;;11.34;55.75
2192;BME280;1102;49.718;11.902;2023-04-06T12:02:21;96521.13;;;11.09;56.42
2192;BME280;1102;49.718;11.902;2023-04-06T12:04:48;96514.47;;;10.82;55.79
2192;BME280;1102;49.718;11.902;2023-04-06T12:07:15;96531.38;;;10.69;57.46
2192;BME280;1102;49.718;11.902;2023-04-06T12:09:42;96507.88;;;10.88;55.60
2192;BME280;1102;49.718;11.902;2023-04-06T12:12:09;96485.00;;;10.71;55.18
2192;BME280;1102;49.718;11.902;2023-04-06T12:14:36;96510.09;;;11.19;54.47
2192;BME280;1102;49.718;11.902;2023-04-06T12:17:03;96505.41;;;11.04;54.22
2192;BME280;1102;49.718;11.902;2023-04-06T12:19:30;96496.41;;;10.84;52.92
2192;BME280;1102;49.718;11.902;2023-04-06T12:21:58;96500.47;;;11.02;54.04
2192;BME280;1102;49.718;11.902;2023-04-06T12:24:25;96509.75;;;11.41;54.03
2192;BME280;1102;49.718;11.902;2023-04-06T12:26:52;96496.84;;;11.85;53.74
2192;BME280;1102;49.718;11.902;2023-04-06T12:29:32;96494.13;;;12.06;52.85
2192;BME280;1102;49.718;11.902;2023-04-06T12:31:59;96516.31;;;11.89;51.44
2192;BME280;1102;49.718;11.902;2023-04-06T12:34:28;96469.31;;;11.65;52.45
2192;BME280;1102;49.718;11.902;2023-04-06T12:36:54;96480.47;;;11.71;52.19
2192;BME280;1102;49.718;11.902;2023-04-06T12:39:22;96337.25;;;10.70;51.74
2192;BME280;1102;49.718;11.902;2023-04-06T12:41:49;96491.03;;;12.16;51.78
2192;BME280;1102;49.718;11.902;2023-04-06T12:44:16;96479.88;;;10.87;52.04
2192;BME280;1102;49.718;11.902;2023-04-06T12:46:43;96485.84;;;12.20;51.36
2192;BME280;1102;49.718;11.902;2023-04-06T12:49:10;96495.88;;;12.38;51.56
2192;BME280;1102;49.718;11.902;2023-04-06T12:51:37;96480.81;;;12.55;49.35
2192;BME280;1102;49.718;11.902;2023-04-06T12:54:04;96453.09;;;12.40;48.47
2192;BME280;1102;49.718;11.902;2023-04-06T12:56:31;96438.25;;;12.91;49.30
2192;BME280;1102;49.718;11.902;2023-04-06T12:58:57;96480.81;;;12.95;48.86
2192;BME280;1102;49.718;11.902;2023-04-06T13:01:24;96499.84;;;12.57;48.48
2192;BME280;1102;49.718;11.902;2023-04-06T13:06:19;96492.31;;;11.86;49.11
2192;BME280;1102;49.718;11.902;2023-04-06T13:08:47;96488.47;;;12.07;48.57
2192;BME280;1102;49.718;11.902;2023-04-06T13:11:16;96446.19;;;12.11;48.03
2192;BME280;1102;49.718;11.902;2023-04-06T13:13:43;96476.53;;;12.13;49.52
2192;BME280;1102;49.718;11.902;2023-04-06T13:16:10;96476.66;;;12.05;48.44
2192;BME280;1102;49.718;11.902;2023-04-06T13:18:37;96477.63;;;12.89;48.52
2192;BME280;1102;49.718;11.902;2023-04-06T13:21:06;96492.63;;;13.38;48.92
2192;BME280;1102;49.718;11.902;2023-04-06T13:23:34;96487.56;;;12.52;47.54
2192;BME280;1102;49.718;11.902;2023-04-06T13:26:04;96467.44;;;12.63;48.04
2192;BME280;1102;49.718;11.902;2023-04-06T13:28:32;96459.78;;;13.30;49.10
2192;BME280;1102;49.718;11.902;2023-04-06T13:31:00;96482.78;;;13.10;47.82
2192;BME280;1102;49.718;11.902;2023-04-06T13:33:28;96479.78;;;13.12;47.73
2192;BME280;1102;49.718;11.902;2023-04-06T13:35:56;96460.69;;;12.54;47.74
2192;BME280;1102;49.718;11.902;2023-04-06T13:38:23;96476.16;;;12.64;46.89
2192;BME280;1102;49.718;11.902;2023-04-06T13:40:52;96465.13;;;13.61;47.82